Hart, MI

1:31 AM EST on November 14, 2019 (GMT -0500)
Pentwater Fire Department | | Change Station
Active Advisory: Winter Weather Advisory

Elev 609 ft 43.78 °N, 86.43 °W | Updated 1 minute ago

Overcast
Overcast
27 °F
Feels Like 27 °F
N
0
Wind Variable Wind from West
Gusts 13.0 mph

Today
High -- | Low -- °F
--% Chance of Precip.
Yesterday
High -- | Low -- °F
Precip. -- in
Pressure 30.03 in
Visibility 5.0 miles
Clouds Overcast 1800 ft
Windchill 27 °F
Dew Point 25 °F
Humidity 93%
Rainfall 0.00 in
Snow Depth Not available.
7:38 AM 5:21 PM
Full, 97% visible
METAR KLDM 140616Z AUTO 30008KT 5SM -SN OVC018 M02/M05 A3003 RMK AO2 T10251055
Pressure 30.03 in
Visibility 5.0 miles
Clouds Overcast 1800 ft
Windchill 27 °F
Dew Point 25 °F
Humidity 93%
Rainfall 0.00 in
Snow Depth Not available.
7:38 AM 5:21 PM
Full, 97% visible
METAR KLDM 140616Z AUTO 30008KT 5SM -SN OVC018 M02/M05 A3003 RMK AO2 T10251055

Get Your Daily Forecast Email!

Thanks for signing up!

Be on the lookout for a verification email in your inbox.

You'll start receiving severe weather alerts in your inbox..

×

10-Day Weather Forecast

Almanac

Astronomy

Nov. 14, 2019 Rise Set
Actual Time
Civil Twilight
Nautical Twilight
Astronomical Twilight
Moon
Length of Visible Light
Length of Day
Tomorrow will be .
, % of the Moon is Illuminated

Today's Extremes

State Highs State Lows

Community

WunderPhotos

Category 6

Welcome to Category 6. This is the collective home for Weather Underground's featured writeups by Dr. Jeff Masters (right), Bob Henson (left), Chris Burt, and other regular contributors.

Nearby

Air Quality

  Air Quality AQ Index Pollutant
Not available.

Snow Depth

Station Depth Elevation

Earthquake Activity

City Distance Mag. Time & Date
Minimum magnitude displayed is 2.5.

Coastal Water Temperatures

Place Temperature

Stations

Nearby Weather Stations

Station Location Temp. Windchill Dew Point Humidity Wind Precip. Elev Updated Type
                   

Watches & Warnings

Winter Weather Advisory
Issued: 9:09 PM EST Nov. 13, 2019 – National Weather Service

... Winter Weather Advisory remains in effect until 10 am EST
Thursday...

* what... snow expected. Total snow accumulations of 2 to 4
inches.

* Where... Mason, Oceana and Muskegon counties.

* When... until 10 am EST Thursday.

* Impacts... plan on slippery Road conditions overnight. Slick
roads will likely persist for the Thursday morning commute as
the snow ends with cold temperatures.

* Additional details... light snow will continue into early
Thursday morning. The heaviest amounts will be along the
Lakeshore North of Muskegon.

Precautionary/preparedness actions...

Slow down and use caution while traveling.



Www.Weather.Gov/GRR